Time;durP1;ratioP1;P1;durP2;ratioP2;P2;SDS_P1;SDS_P2;PMS_P1;PMS_P2;Temp;Humidity;BMP_temperature;BMP_pressure;BME280_temperature;BME280_humidity;BME280_pressure;Samples;Min_cycle;Max_cycle;Signal;HPM_P1;HPM_P2
2022/10/06 03:00:43;;;;;;;0.88;0.70;;;20.10;49.40;;;;;;5782169;23;45848;-86
2022/10/06 03:03:08;;;;;;;1.38;0.75;;;20.10;49.40;;;;;;4839707;28;44999;-81
2022/10/06 03:05:34;;;;;;;0.70;0.70;;;20.10;49.50;;;;;;4859670;28;44699;-83
2022/10/06 03:07:59;;;;;;;0.60;0.60;;;20.10;49.50;;;;;;4838571;28;45000;-84
2022/10/06 03:10:25;;;;;;;1.02;0.93;;;20.10;49.40;;;;;;4841436;28;47405;-80
2022/10/06 03:12:50;;;;;;;0.98;0.90;;;20.10;49.40;;;;;;4869793;29;45354;-82
2022/10/06 03:15:17;;;;;;;1.27;0.90;;;20.10;49.40;;;;;;4856663;28;45321;-83
2022/10/06 03:17:47;;;;;;;0.65;0.65;;;20.10;49.40;;;;;;4851792;29;45580;-82
2022/10/06 03:20:13;;;;;;;1.00;0.90;;;20.10;49.50;;;;;;4846046;28;47209;-81
2022/10/06 03:22:38;;;;;;;1.92;1.02;;;20.10;49.50;;;;;;4871544;29;45041;-84
2022/10/06 03:25:04;;;;;;;0.80;0.80;;;20.10;49.50;;;;;;4841377;29;45178;-84
2022/10/06 03:27:30;;;;;;;0.88;0.77;;;20.10;49.50;;;;;;4834035;28;44703;-83
2022/10/06 03:29:55;;;;;;;3.58;0.70;;;20.10;49.50;;;;;;4857643;29;47213;-80
2022/10/06 03:32:22;;;;;;;1.00;0.80;;;20.10;49.50;;;;;;4858888;28;45367;-77
2022/10/06 03:34:48;;;;;;;1.27;0.77;;;20.10;49.50;;;;;;4859601;28;45668;-82
2022/10/06 03:37:14;;;;;;;1.13;0.90;;;20.10;49.50;;;;;;4872280;28;45401;-82
2022/10/06 03:39:39;;;;;;;0.80;0.80;;;20.10;49.50;;;;;;4873604;28;47328;-82
2022/10/06 03:42:05;;;;;;;0.85;0.80;;;20.00;49.40;;;;;;4869625;29;45285;-80
2022/10/06 03:44:33;;;;;;;1.20;0.90;;;20.00;49.50;;;;;;4867912;28;45242;-84
2022/10/06 03:46:59;;;;;;;2.03;0.80;;;20.00;49.50;;;;;;4882106;28;44927;-80
2022/10/06 03:49:24;;;;;;;0.73;0.70;;;20.00;49.40;;;;;;4864916;28;47472;-85
2022/10/06 03:51:50;;;;;;;1.83;0.80;;;20.00;49.40;;;;;;4834509;28;45818;-82
2022/10/06 03:54:15;;;;;;;1.33;0.90;;;20.00;49.50;;;;;;4857470;28;45245;-83
2022/10/06 03:56:41;;;;;;;0.70;0.70;;;20.00;49.50;;;;;;4853716;28;44668;-82
2022/10/06 03:59:08;;;;;;;1.00;0.57;;;20.00;49.50;;;;;;4865366;29;47102;-81
2022/10/06 04:01:36;;;;;;;0.68;0.65;;;20.00;49.40;;;;;;4845795;29;45345;-81
2022/10/06 04:04:02;;;;;;;0.70;0.70;;;20.00;49.50;;;;;;4837884;29;44830;-80
2022/10/06 04:06:29;;;;;;;2.35;0.60;;;20.00;49.40;;;;;;4861372;29;44896;-80
2022/10/06 04:08:55;;;;;;;0.65;0.65;;;20.00;49.50;;;;;;4870775;29;47189;-79
2022/10/06 04:11:25;;;;;;;0.90;0.80;;;20.00;49.50;;;;;;4830443;29;45186;-79
2022/10/06 04:13:53;;;;;;;1.02;0.80;;;20.00;49.50;;;;;;4858960;29;44871;-82
2022/10/06 04:16:21;;;;;;;0.70;0.70;;;20.00;49.40;;;;;;4864912;29;44789;-78
2022/10/06 04:18:54;;;;;;;0.80;0.77;;;20.00;49.40;;;;;;4852644;29;46822;-82
2022/10/06 04:21:20;;;;;;;0.70;0.70;;;20.00;49.40;;;;;;4844710;29;45496;-82
2022/10/06 04:23:46;;;;;;;0.80;0.80;;;20.00;49.40;;;;;;4863161;29;45217;-82
2022/10/06 04:26:16;;;;;;;0.60;0.60;;;20.00;49.40;;;;;;4853128;29;45192;-80
2022/10/06 04:28:45;;;;;;;0.60;0.60;;;20.00;49.50;;;;;;4850237;29;45473;-81
2022/10/06 04:31:22;;;;;;;0.75;0.75;;;20.00;49.50;;;;;;4851531;29;45152;-80
2022/10/06 04:33:50;;;;;;;0.80;0.60;;;20.00;49.50;;;;;;4817890;29;45445;-78
2022/10/06 04:36:23;;;;;;;0.73;0.60;;;20.00;49.50;;;;;;4821079;29;45641;-78
2022/10/06 04:38:49;;;;;;;0.80;0.80;;;20.00;49.50;;;;;;4854427;29;47444;-81
2022/10/06 04:41:16;;;;;;;1.00;0.73;;;19.90;49.40;;;;;;4826619;29;45244;-80
2022/10/06 04:43:45;;;;;;;1.05;0.93;;;20.00;49.60;;;;;;4864288;29;45086;-78
2022/10/06 04:46:11;;;;;;;2.42;0.90;;;20.00;49.50;;;;;;4861346;29;45463;-79
2022/10/06 04:48:36;;;;;;;0.60;0.60;;;20.00;49.40;;;;;;4860045;29;46872;-79
2022/10/06 04:51:04;;;;;;;0.80;0.70;;;20.00;49.40;;;;;;4856328;29;45709;-79
2022/10/06 04:53:30;;;;;;;0.70;0.70;;;20.00;49.40;;;;;;4858227;29;45512;-78
2022/10/06 04:56:02;;;;;;;0.80;0.80;;;20.00;49.30;;;;;;4856417;29;45551;-79
2022/10/06 04:58:35;;;;;;;0.80;0.80;;;20.10;49.40;;;;;;4843343;29;47250;-79
2022/10/06 05:01:00;;;;;;;0.70;0.70;;;20.10;49.40;;;;;;4853228;29;45390;-79
2022/10/06 05:03:29;;;;;;;0.82;0.82;;;20.10;49.40;;;;;;4849667;29;44957;-79
2022/10/06 05:06:03;;;;;;;0.60;0.60;;;20.10;49.40;;;;;;4865351;29;45299;-79
2022/10/06 05:08:29;;;;;;;0.65;0.65;;;20.10;49.40;;;;;;4851369;29;45554;-79
2022/10/06 05:10:59;;;;;;;2.35;0.80;;;20.10;49.40;;;;;;4859924;29;45403;-78
2022/10/06 05:13:25;;;;;;;0.55;0.55;;;20.20;49.30;;;;;;4848412;29;45628;-79
2022/10/06 05:15:58;;;;;;;0.63;0.63;;;20.20;49.30;;;;;;4867846;29;45160;-80
2022/10/06 05:18:24;;;;;;;0.52;0.52;;;20.20;49.30;;;;;;4841946;29;46844;-80
2022/10/06 05:20:56;;;;;;;0.77;0.70;;;20.20;49.20;;;;;;4825162;29;45515;-79
2022/10/06 05:23:23;;;;;;;0.60;0.60;;;20.20;49.40;;;;;;4835331;29;45457;-79
2022/10/06 05:25:51;;;;;;;0.82;0.80;;;20.20;49.40;;;;;;4847847;29;45225;-79
2022/10/06 05:28:16;;;;;;;1.40;0.95;;;20.20;49.40;;;;;;4861028;29;45662;-80
2022/10/06 05:30:42;;;;;;;0.73;0.70;;;20.10;49.50;;;;;;4828765;29;45487;-79
2022/10/06 05:33:10;;;;;;;0.95;0.70;;;20.10;49.50;;;;;;4837876;29;45567;-79
2022/10/06 05:35:35;;;;;;;0.80;0.80;;;20.10;49.40;;;;;;4876172;29;45666;-79
2022/10/06 05:38:01;;;;;;;0.70;0.70;;;20.10;49.40;;;;;;4873711;29;45631;-79
2022/10/06 05:40:26;;;;;;;0.98;0.82;;;20.10;49.40;;;;;;4859042;29;45086;-79
2022/10/06 05:42:54;;;;;;;1.00;0.90;;;20.20;49.50;;;;;;4884114;29;45575;-79
2022/10/06 05:45:19;;;;;;;0.57;0.57;;;20.10;49.40;;;;;;4892289;29;45131;-79
2022/10/06 05:47:45;;;;;;;0.85;0.77;;;20.10;49.40;;;;;;4878416;29;47366;-79
2022/10/06 05:50:10;;;;;;;0.90;0.90;;;20.10;49.50;;;;;;4859378;29;45444;-80
2022/10/06 05:52:37;;;;;;;0.70;0.70;;;20.10;49.50;;;;;;4830754;29;45623;-80
2022/10/06 05:55:02;;;;;;;0.60;0.60;;;20.10;49.50;;;;;;4874642;29;45710;-80
2022/10/06 05:57:28;;;;;;;0.68;0.68;;;20.10;49.50;;;;;;4841523;29;47775;-80
2022/10/06 05:59:53;;;;;;;1.40;0.70;;;20.10;49.50;;;;;;4840819;29;45470;-81
2022/10/06 06:02:19;;;;;;;0.80;0.80;;;20.10;49.50;;;;;;4858113;28;45407;-81
2022/10/06 06:04:44;;;;;;;0.73;0.60;;;20.10;49.50;;;;;;4862416;29;45072;-80
2022/10/06 06:07:10;;;;;;;0.80;0.80;;;20.10;49.50;;;;;;4871854;28;46760;-80
2022/10/06 06:09:36;;;;;;;0.60;0.60;;;20.00;49.40;;;;;;4884506;28;45072;-80
2022/10/06 06:12:01;;;;;;;1.30;0.68;;;20.10;49.50;;;;;;4878162;28;45243;-80
2022/10/06 06:17:11;;;;;;;1.27;0.90;;;20.00;49.50;;;;;;4862369;29;48075;-80
2022/10/06 06:19:36;;;;;;;0.70;0.70;;;20.00;49.50;;;;;;4839730;28;44868;-79
2022/10/06 06:22:02;;;;;;;0.90;0.75;;;20.00;49.50;;;;;;4885599;28;45521;-80
2022/10/06 06:24:28;;;;;;;0.60;0.55;;;20.00;49.50;;;;;;4853360;28;45235;-79
2022/10/06 06:26:53;;;;;;;0.90;0.70;;;20.00;49.50;;;;;;4846805;28;47407;-80
2022/10/06 06:29:19;;;;;;;0.98;0.80;;;20.00;49.50;;;;;;4838435;28;45489;-80
2022/10/06 06:31:45;;;;;;;0.70;0.68;;;20.00;49.50;;;;;;4865859;29;45771;-81
2022/10/06 06:34:11;;;;;;;0.77;0.50;;;20.00;49.40;;;;;;4862187;28;45537;-80
2022/10/06 06:36:39;;;;;;;0.70;0.70;;;20.00;49.40;;;;;;4866701;28;47050;-80
2022/10/06 06:39:09;;;;;;;0.93;0.70;;;20.00;49.50;;;;;;4871432;29;45467;-80
2022/10/06 06:41:36;;;;;;;0.80;0.75;;;20.00;49.50;;;;;;4835686;28;44866;-80
2022/10/06 06:44:02;;;;;;;0.60;0.60;;;20.00;49.50;;;;;;4876249;28;45495;-81
2022/10/06 06:46:30;;;;;;;1.15;0.80;;;20.00;49.50;;;;;;4869335;28;47246;-80
2022/10/06 06:48:57;;;;;;;1.02;0.93;;;20.00;49.50;;;;;;4854374;29;45034;-79
2022/10/06 06:51:23;;;;;;;1.33;0.80;;;20.00;49.50;;;;;;4850339;28;45125;-80
2022/10/06 06:53:49;;;;;;;0.50;0.50;;;20.00;49.50;;;;;;4868210;28;45279;-79
2022/10/06 06:56:14;;;;;;;0.82;0.70;;;20.00;49.50;;;;;;4877285;28;45188;-80
2022/10/06 06:58:46;;;;;;;0.73;0.63;;;20.00;49.50;;;;;;4864484;28;44987;-80
2022/10/06 07:01:13;;;;;;;0.80;0.80;;;20.00;49.50;;;;;;4850310;29;45787;-80
2022/10/06 07:03:42;;;;;;;0.70;0.70;;;20.00;49.50;;;;;;4841771;29;45188;-80
2022/10/06 07:06:10;;;;;;;0.77;0.68;;;20.00;49.50;;;;;;4877580;28;46133;-80
2022/10/06 07:08:37;;;;;;;0.45;0.45;;;20.00;49.50;;;;;;4868056;28;44604;-80
2022/10/06 07:11:16;;;;;;;0.80;0.70;;;20.00;49.50;;;;;;4872879;29;45234;-80
2022/10/06 07:13:42;;;;;;;0.98;0.70;;;20.00;49.50;;;;;;4872076;28;45542;-80
2022/10/06 07:27:07;;;;;;;0.40;0.40;;;19.90;49.50;;;;;;4858175;29;46638;-80
2022/10/06 07:29:33;;;;;;;0.77;0.77;;;19.90;49.50;;;;;;4863932;28;44870;-78
2022/10/06 07:31:59;;;;;;;1.00;0.90;;;19.90;49.50;;;;;;4867281;29;45487;-78
2022/10/06 07:34:24;;;;;;;0.75;0.70;;;19.90;49.50;;;;;;4870674;28;45561;-79
2022/10/06 07:36:53;;;;;;;0.65;0.60;;;19.90;49.60;;;;;;4859914;29;47464;-81
2022/10/06 07:39:21;;;;;;;0.60;0.60;;;19.90;49.50;;;;;;4876917;28;45446;-82
2022/10/06 07:41:47;;;;;;;0.88;0.75;;;20.00;49.50;;;;;;4867923;28;45202;-81
2022/10/06 07:44:12;;;;;;;0.60;0.50;;;20.00;49.50;;;;;;4840214;28;45160;-82
2022/10/06 07:46:38;;;;;;;0.93;0.85;;;19.90;49.50;;;;;;4877390;28;45020;-78
2022/10/06 07:49:03;;;;;;;0.70;0.70;;;19.90;49.50;;;;;;4874424;28;45220;-79
2022/10/06 07:51:29;;;;;;;0.65;0.50;;;19.90;49.50;;;;;;4871313;28;45324;-81
2022/10/06 07:53:54;;;;;;;0.77;0.70;;;19.90;49.50;;;;;;4839211;28;44764;-80
2022/10/06 07:56:20;;;;;;;0.60;0.60;;;19.90;49.50;;;;;;4879226;28;45873;-79
2022/10/06 07:58:46;;;;;;;0.90;0.80;;;19.90;49.50;;;;;;4851333;28;45433;-79
2022/10/06 08:01:12;;;;;;;0.93;0.70;;;19.90;49.50;;;;;;4874680;29;45299;-79
2022/10/06 08:03:39;;;;;;;0.95;0.73;;;19.90;49.50;;;;;;4839385;28;45401;-79
2022/10/06 08:06:08;;;;;;;0.77;0.77;;;19.90;49.60;;;;;;4861785;28;45462;-78
2022/10/06 08:08:36;;;;;;;1.17;0.70;;;19.90;49.60;;;;;;4864098;28;45751;-79
2022/10/06 08:11:02;;;;;;;1.02;0.70;;;19.90;49.60;;;;;;4863950;28;45575;-80
2022/10/06 08:13:31;;;;;;;1.00;0.60;;;19.90;49.60;;;;;;4872548;28;44716;-79
2022/10/06 08:16:02;;;;;;;0.98;0.68;;;19.90;49.60;;;;;;4831387;28;47674;-79
2022/10/06 08:18:28;;;;;;;1.30;0.65;;;19.90;49.50;;;;;;4836096;28;45579;-79
2022/10/06 08:20:54;;;;;;;0.80;0.80;;;19.90;49.50;;;;;;4858697;28;45253;-79
2022/10/06 08:23:20;;;;;;;0.60;0.60;;;19.90;49.60;;;;;;4864630;28;45506;-80
2022/10/06 08:25:53;;;;;;;0.70;0.50;;;19.90;49.50;;;;;;4856192;29;48118;-79
2022/10/06 08:28:19;;;;;;;0.88;0.70;;;19.90;49.50;;;;;;4841220;28;45509;-80
2022/10/06 08:30:44;;;;;;;0.70;0.70;;;19.90;49.60;;;;;;4849665;29;44694;-80
2022/10/06 08:33:10;;;;;;;0.50;0.50;;;19.90;49.50;;;;;;4872436;29;45220;-79
2022/10/06 08:35:36;;;;;;;0.75;0.70;;;19.90;49.50;;;;;;4856433;28;45480;-79
2022/10/06 08:38:01;;;;;;;0.85;0.73;;;19.90;49.50;;;;;;4875555;29;45703;-79
2022/10/06 08:40:27;;;;;;;0.88;0.80;;;19.90;49.50;;;;;;4878522;28;45108;-79
2022/10/06 08:42:57;;;;;;;0.77;0.77;;;19.90;49.50;;;;;;4863162;28;44942;-81
2022/10/06 08:45:27;;;;;;;0.73;0.60;;;19.90;49.50;;;;;;4861638;28;46660;-79
2022/10/06 08:47:59;;;;;;;1.15;0.63;;;19.90;49.50;;;;;;4859419;28;45259;-79
2022/10/06 08:50:27;;;;;;;0.88;0.68;;;19.90;49.50;;;;;;4865382;28;45173;-79
2022/10/06 08:53:04;;;;;;;0.50;0.50;;;19.90;49.50;;;;;;4897139;28;45385;-79
2022/10/06 08:55:41;;;;;;;0.60;0.60;;;19.90;49.50;;;;;;4840157;28;47197;-80
2022/10/06 08:58:21;;;;;;;0.68;0.60;;;19.90;49.50;;;;;;4894476;28;45612;-80
2022/10/06 09:00:47;;;;;;;0.65;0.50;;;19.90;49.50;;;;;;4874685;29;45784;-80
2022/10/06 09:03:22;;;;;;;0.70;0.70;;;19.90;49.50;;;;;;4876353;28;45343;-81
2022/10/06 09:05:53;;;;;;;0.55;0.52;;;19.90;49.50;;;;;;4856739;29;45425;-81
2022/10/06 09:08:44;;;;;;;0.80;0.60;;;19.90;49.50;;;;;;4841966;28;45655;-80
2022/10/06 09:11:33;;;;;;;1.38;0.57;;;19.90;49.50;;;;;;4875242;28;45550;-80
2022/10/06 09:14:16;;;;;;;0.57;0.57;;;19.90;49.50;;;;;;4889828;28;45171;-80
2022/10/06 09:16:43;;;;;;;0.80;0.70;;;19.90;49.50;;;;;;4853053;29;48494;-80
2022/10/06 09:19:17;;;;;;;0.57;0.57;;;19.90;49.50;;;;;;4877260;29;45928;-81
2022/10/06 09:21:49;;;;;;;0.95;0.80;;;19.90;49.40;;;;;;4873363;28;45022;-80
2022/10/06 09:24:17;;;;;;;0.73;0.73;;;19.90;49.40;;;;;;4900460;28;45315;-80
2022/10/06 09:26:44;;;;;;;0.60;0.60;;;20.00;49.40;;;;;;4867767;28;45439;-80
2022/10/06 09:29:10;;;;;;;0.63;0.60;;;19.90;49.30;;;;;;4854853;29;45157;-80
2022/10/06 09:31:36;;;;;;;1.02;0.73;;;20.00;49.30;;;;;;4862061;28;44885;-80
2022/10/06 09:34:42;;;;;;;0.60;0.57;;;20.00;49.20;;;;;;4884891;28;45691;-80
2022/10/06 09:37:09;;;;;;;0.65;0.65;;;20.00;49.20;;;;;;4864825;28;46004;-80
2022/10/06 09:39:43;;;;;;;0.73;0.70;;;20.00;49.30;;;;;;4893297;28;46071;-80
2022/10/06 09:42:09;;;;;;;0.60;0.52;;;20.00;49.20;;;;;;4898706;28;45554;-80
2022/10/06 09:44:50;;;;;;;0.90;0.60;;;20.00;49.20;;;;;;4871294;28;45274;-80
2022/10/06 09:47:28;;;;;;;1.15;0.60;;;20.00;49.20;;;;;;4870743;28;48432;-79
2022/10/06 09:50:23;;;;;;;1.75;0.65;;;20.00;49.20;;;;;;4907043;28;45277;-80
2022/10/06 09:53:02;;;;;;;0.60;0.60;;;20.00;49.30;;;;;;4870454;28;45447;-80
2022/10/06 09:55:36;;;;;;;1.10;0.70;;;20.10;49.20;;;;;;4875769;28;45256;-81
2022/10/06 09:58:16;;;;;;;0.47;0.47;;;20.10;49.10;;;;;;4877840;29;46915;-80
2022/10/06 10:00:50;;;;;;;0.50;0.50;;;20.10;49.10;;;;;;4868804;29;45485;-81
2022/10/06 10:03:15;;;;;;;0.80;0.60;;;20.10;49.10;;;;;;4851696;29;45251;-80
2022/10/06 10:05:53;;;;;;;0.50;0.50;;;20.10;49.20;;;;;;4837732;29;45187;-80
2022/10/06 10:08:26;;;;;;;1.40;0.90;;;20.10;49.20;;;;;;4843965;29;46893;-80
2022/10/06 10:11:06;;;;;;;0.60;0.60;;;20.10;49.20;;;;;;4865218;29;45439;-80
2022/10/06 10:13:41;;;;;;;0.65;0.60;;;20.10;49.10;;;;;;4864249;29;45191;-80
2022/10/06 10:16:06;;;;;;;0.40;0.40;;;20.10;49.10;;;;;;4874977;29;45208;-80
2022/10/06 10:18:32;;;;;;;0.50;0.50;;;20.10;49.00;;;;;;4857557;29;45597;-80
2022/10/06 10:21:05;;;;;;;0.60;0.60;;;20.10;49.00;;;;;;4863352;29;44780;-80
2022/10/06 10:23:32;;;;;;;2.22;0.52;;;20.10;49.00;;;;;;4862589;29;45286;-80
2022/10/06 10:26:03;;;;;;;0.60;0.60;;;20.10;49.00;;;;;;4871814;29;45193;-80
2022/10/06 10:29:06;;;;;;;0.80;0.80;;;20.10;49.00;;;;;;4885450;29;48361;-80
2022/10/06 10:31:47;;;;;;;0.53;0.50;;;20.10;49.00;;;;;;4888416;29;45488;-80
2022/10/06 10:34:37;;;;;;;0.40;0.40;;;20.10;49.00;;;;;;4869984;29;44691;-80
2022/10/06 10:37:17;;;;;;;0.80;0.80;;;20.20;49.00;;;;;;4891594;28;45261;-80
2022/10/06 10:39:55;;;;;;;0.93;0.60;;;20.20;49.00;;;;;;4848917;29;47443;-80
2022/10/06 10:42:27;;;;;;;1.10;0.80;;;20.20;48.90;;;;;;4892713;28;44729;-81
2022/10/06 10:44:58;;;;;;;0.80;0.70;;;20.20;49.00;;;;;;4885295;29;44686;-80
2022/10/06 10:47:30;;;;;;;0.52;0.50;;;20.20;49.00;;;;;;4867786;29;45278;-80
2022/10/06 10:50:05;;;;;;;0.60;0.60;;;20.20;48.90;;;;;;4861217;29;48133;-80
2022/10/06 10:52:33;;;;;;;0.65;0.60;;;20.20;48.90;;;;;;4868978;29;44990;-80
2022/10/06 10:55:10;;;;;;;0.80;0.80;;;20.20;48.90;;;;;;4877202;29;44624;-79
2022/10/06 10:57:39;;;;;;;1.17;0.63;;;20.30;48.90;;;;;;4886536;29;45303;-80
2022/10/06 11:00:07;;;;;;;0.88;0.70;;;20.20;48.80;;;;;;4856761;29;47296;-81
2022/10/06 11:02:34;;;;;;;0.70;0.60;;;20.20;48.80;;;;;;4859457;29;45417;-80
2022/10/06 11:05:22;;;;;;;2.05;0.63;;;20.30;48.90;;;;;;4860906;29;45471;-79
2022/10/06 11:07:52;;;;;;;0.52;0.52;;;20.30;48.80;;;;;;4896708;29;45178;-81
2022/10/06 11:10:22;;;;;;;0.63;0.63;;;20.30;48.80;;;;;;4872526;29;45448;-79
2022/10/06 11:13:15;;;;;;;0.75;0.60;;;20.30;48.80;;;;;;4862090;29;45275;-80
2022/10/06 11:15:50;;;;;;;0.60;0.60;;;20.30;48.70;;;;;;4874180;29;45205;-80
2022/10/06 11:18:35;;;;;;;0.90;0.77;;;20.30;48.70;;;;;;4888106;29;45096;-80
2022/10/06 11:21:30;;;;;;;0.80;0.80;;;20.30;48.70;;;;;;4905695;28;47274;-80
2022/10/06 11:23:56;;;;;;;0.70;0.60;;;20.30;48.70;;;;;;4854134;29;46155;-81
2022/10/06 11:26:41;;;;;;;0.75;0.55;;;20.30;48.70;;;;;;4848506;29;45273;-80
2022/10/06 11:29:37;;;;;;;1.77;0.63;;;20.40;48.80;;;;;;4878764;29;45197;-80
2022/10/06 11:32:19;;;;;;;0.75;0.55;;;20.40;48.80;;;;;;4875282;29;47122;-80
2022/10/06 11:34:47;;;;;;;0.50;0.50;;;20.30;48.70;;;;;;4881281;29;45111;-80
2022/10/06 11:37:25;;;;;;;0.50;0.50;;;20.30;48.70;;;;;;4826006;29;45180;-79
2022/10/06 11:40:08;;;;;;;1.30;0.60;;;20.40;48.80;;;;;;4874875;29;45597;-80
2022/10/06 11:43:16;;;;;;;1.30;0.70;;;20.30;48.70;;;;;;4854315;29;47433;-80
2022/10/06 11:46:20;;;;;;;0.63;0.63;;;20.40;48.80;;;;;;4850863;29;45339;-80
2022/10/06 11:48:46;;;;;;;0.60;0.60;;;20.40;48.80;;;;;;4891214;29;45571;-80
2022/10/06 11:51:25;;;;;;;0.43;0.43;;;20.40;48.80;;;;;;4863741;29;45354;-80
2022/10/06 11:53:51;;;;;;;0.68;0.68;;;20.40;48.80;;;;;;4870363;29;47741;-80
2022/10/06 11:56:16;;;;;;;0.57;0.57;;;20.40;48.80;;;;;;4872574;29;45344;-80
2022/10/06 11:58:51;;;;;;;1.17;0.70;;;20.40;48.80;;;;;;4879244;29;45147;-80
2022/10/06 12:01:35;;;;;;;1.25;0.65;;;20.40;48.70;;;;;;4878451;29;45745;-81
2022/10/06 12:04:09;;;;;;;0.55;0.55;;;20.40;48.70;;;;;;4853275;29;47016;-80
2022/10/06 12:06:41;;;;;;;0.40;0.40;;;20.40;48.70;;;;;;4889659;29;45166;-80
2022/10/06 12:09:37;;;;;;;0.60;0.60;;;20.40;48.70;;;;;;4885294;29;45489;-80
2022/10/06 12:12:18;;;;;;;1.02;0.60;;;20.40;48.70;;;;;;4892636;29;44667;-80
2022/10/06 12:14:43;;;;;;;0.60;0.50;;;20.40;48.70;;;;;;4888057;29;47161;-80
2022/10/06 12:17:29;;;;;;;0.55;0.50;;;20.40;48.70;;;;;;4868469;29;46114;-80
2022/10/06 12:20:00;;;;;;;0.52;0.47;;;20.50;48.80;;;;;;4860824;29;45149;-80
2022/10/06 12:22:30;;;;;;;1.10;0.60;;;20.40;48.70;;;;;;4901723;29;44817;-80
2022/10/06 12:24:59;;;;;;;1.10;0.60;;;20.50;48.70;;;;;;4874768;29;45567;-81
2022/10/06 12:27:42;;;;;;;0.90;0.60;;;20.40;48.70;;;;;;4874112;29;45354;-80
2022/10/06 12:30:21;;;;;;;0.85;0.60;;;20.50;48.80;;;;;;4889095;28;45322;-80
2022/10/06 12:32:54;;;;;;;0.82;0.70;;;20.50;48.80;;;;;;4874521;29;45162;-80
2022/10/06 12:35:33;;;;;;;;;;;20.40;48.70;;;;;;4903134;28;45326;-80
2022/10/06 12:38:04;;;;;;;0.52;0.38;;;20.40;48.80;;;;;;4859786;29;45337;-81
2022/10/06 12:40:50;;;;;;;0.40;0.40;;;20.40;48.80;;;;;;4840106;29;45231;-80
2022/10/06 12:43:18;;;;;;;0.70;0.50;;;20.40;48.80;;;;;;4860482;29;45125;-80
2022/10/06 12:46:04;;;;;;;2.13;0.63;;;20.40;48.80;;;;;;4912213;28;47235;-80
2022/10/06 12:49:02;;;;;;;1.15;0.52;;;20.40;48.80;;;;;;4853976;29;45440;-81
2022/10/06 12:51:29;;;;;;;0.50;0.50;;;20.40;48.90;;;;;;4874275;29;45271;-80
2022/10/06 12:53:57;;;;;;;0.40;0.40;;;20.40;48.90;;;;;;4881635;29;44767;-80
2022/10/06 12:56:32;;;;;;;0.60;0.55;;;20.40;48.90;;;;;;4887421;29;47265;-80
2022/10/06 12:58:58;;;;;;;0.50;0.50;;;20.40;48.90;;;;;;4870278;29;45791;-80
2022/10/06 13:01:24;;;;;;;0.80;0.60;;;20.40;49.00;;;;;;4848132;28;45749;-80
2022/10/06 13:03:51;;;;;;;0.60;0.60;;;20.40;48.90;;;;;;4886054;28;45381;-80
2022/10/06 13:06:23;;;;;;;0.90;0.60;;;20.40;49.00;;;;;;4877038;28;45348;-80
2022/10/06 13:09:10;;;;;;;0.45;0.45;;;20.40;48.90;;;;;;4884744;28;45542;-80
2022/10/06 13:11:36;;;;;;;0.55;0.55;;;20.40;48.90;;;;;;4843772;28;46083;-80
2022/10/06 13:14:11;;;;;;;0.70;0.50;;;20.40;49.00;;;;;;4871909;29;45511;-81
2022/10/06 13:16:40;;;;;;;0.50;0.50;;;20.40;48.90;;;;;;4883390;28;46966;-80
2022/10/06 13:19:24;;;;;;;0.35;0.35;;;20.40;48.90;;;;;;4872990;28;45295;-80
2022/10/06 13:21:49;;;;;;;0.50;0.50;;;20.50;48.90;;;;;;4857661;29;45349;-80
2022/10/06 13:24:19;;;;;;;0.40;0.40;;;20.50;48.80;;;;;;4866912;28;44749;-81
2022/10/06 13:26:45;;;;;;;0.55;0.47;;;20.50;48.80;;;;;;4879419;23;46663;-79
2022/10/06 13:29:21;;;;;;;1.00;0.70;;;20.50;48.80;;;;;;4901423;28;45215;-79
2022/10/06 13:31:51;;;;;;;0.57;0.50;;;20.50;48.80;;;;;;4923657;28;45200;-79
2022/10/06 13:34:31;;;;;;;1.17;0.43;;;20.50;48.70;;;;;;4880709;28;45828;-80
2022/10/06 13:36:57;;;;;;;0.40;0.40;;;20.50;48.80;;;;;;4898288;28;45811;-80
2022/10/06 13:39:24;;;;;;;0.60;0.60;;;20.50;48.70;;;;;;4904574;28;45199;-80
2022/10/06 13:41:54;;;;;;;0.55;0.50;;;20.50;48.70;;;;;;4882651;28;45860;-80
2022/10/06 13:44:46;;;;;;;0.80;0.60;;;20.50;48.80;;;;;;4892356;28;45223;-79
2022/10/06 13:47:17;;;;;;;0.45;0.45;;;20.50;48.70;;;;;;4904241;28;47258;-79
2022/10/06 13:49:59;;;;;;;0.40;0.40;;;20.50;48.70;;;;;;4871852;28;45134;-79
2022/10/06 13:52:32;;;;;;;0.65;0.60;;;20.50;48.80;;;;;;4872677;28;45069;-79
2022/10/06 13:54:59;;;;;;;0.55;0.52;;;20.50;48.70;;;;;;4900008;28;45239;-79
2022/10/06 13:57:34;;;;;;;1.00;0.60;;;20.50;48.70;;;;;;4894412;28;47377;-80
2022/10/06 14:00:20;;;;;;;0.65;0.50;;;20.60;48.70;;;;;;4894791;28;45918;-79
2022/10/06 14:02:47;;;;;;;0.75;0.63;;;20.60;48.80;;;;;;4880094;28;44615;-80
2022/10/06 14:05:22;;;;;;;0.57;0.45;;;20.60;48.80;;;;;;4891774;28;44705;-79
2022/10/06 14:07:48;;;;;;;0.40;0.40;;;20.60;48.80;;;;;;4926946;28;46658;-79
2022/10/06 14:10:18;;;;;;;1.02;0.43;;;20.50;48.70;;;;;;4880432;28;45131;-79
2022/10/06 14:12:44;;;;;;;0.70;0.70;;;20.60;48.80;;;;;;4884118;28;45550;-80
2022/10/06 14:15:21;;;;;;;0.60;0.57;;;20.60;48.80;;;;;;4906902;28;45251;-79
2022/10/06 14:17:58;;;;;;;0.63;0.60;;;20.60;48.70;;;;;;4897666;28;45285;-80
2022/10/06 14:20:46;;;;;;;0.40;0.40;;;20.60;48.70;;;;;;4920681;28;45081;-79
2022/10/06 14:23:37;;;;;;;0.77;0.70;;;20.60;48.80;;;;;;4911184;28;45141;-79
2022/10/06 14:26:03;;;;;;;0.90;0.77;;;20.60;48.80;;;;;;4890409;29;45162;-79
2022/10/06 14:28:29;;;;;;;0.50;0.50;;;20.60;48.80;;;;;;4876930;29;45457;-79
2022/10/06 14:30:55;;;;;;;0.68;0.50;;;20.60;48.80;;;;;;4854381;29;45129;-79
2022/10/06 14:33:20;;;;;;;0.43;0.43;;;20.60;48.80;;;;;;4894737;28;44635;-79
2022/10/06 14:35:47;;;;;;;0.43;0.40;;;20.60;48.80;;;;;;4898637;28;44688;-79
2022/10/06 14:38:13;;;;;;;0.50;0.50;;;20.60;49.00;;;;;;4904273;28;46750;-80
2022/10/06 14:40:41;;;;;;;0.47;0.40;;;20.60;48.80;;;;;;4873731;29;45586;-79
2022/10/06 14:43:07;;;;;;;0.57;0.57;;;20.60;48.70;;;;;;4908825;28;45263;-79
2022/10/06 14:45:34;;;;;;;0.68;0.57;;;20.60;48.80;;;;;;4877028;28;44810;-80
2022/10/06 14:48:03;;;;;;;0.38;0.38;;;20.60;48.70;;;;;;4877201;28;45420;-79
2022/10/06 14:50:29;;;;;;;0.38;0.38;;;20.60;48.80;;;;;;4909080;28;45182;-79
2022/10/06 14:52:57;;;;;;;0.80;0.57;;;20.60;48.80;;;;;;4879112;28;45236;-80
2022/10/06 14:55:26;;;;;;;0.63;0.52;;;20.60;48.70;;;;;;4878239;28;45294;-79
2022/10/06 14:57:53;;;;;;;0.38;0.38;;;20.60;48.70;;;;;;4894845;28;45307;-80
2022/10/06 15:00:19;;;;;;;0.57;0.47;;;20.60;48.70;;;;;;4862264;28;45182;-80
2022/10/06 15:02:45;;;;;;;0.52;0.40;;;20.60;48.70;;;;;;4890467;29;45163;-80
2022/10/06 15:05:10;;;;;;;0.60;0.50;;;20.60;48.70;;;;;;4905850;28;45336;-80
2022/10/06 15:08:18;;;;;;;0.35;0.28;;;20.70;48.80;;;;;;4893737;28;45335;-79
2022/10/06 15:10:24;;;;;;;0.50;0.40;;;20.70;48.80;;;;;;4922365;28;45194;-79
2022/10/06 15:12:51;;;;;;;0.30;0.30;;;20.70;48.80;;;;;;4898858;28;45369;-81
2022/10/06 15:15:17;;;;;;;0.75;0.52;;;20.60;48.70;;;;;;4895904;28;45374;-80
2022/10/06 15:17:42;;;;;;;0.47;0.47;;;20.70;48.80;;;;;;4912462;28;47911;-79
2022/10/06 15:20:10;;;;;;;0.80;0.60;;;20.70;48.80;;;;;;4904626;28;44721;-79
2022/10/06 15:22:36;;;;;;;1.13;0.55;;;20.70;48.80;;;;;;4878204;28;45212;-79
2022/10/06 15:25:02;;;;;;;0.38;0.38;;;20.70;48.80;;;;;;4915745;28;45195;-79
2022/10/06 15:30:12;;;;;;;0.98;0.40;;;20.70;48.80;;;;;;4914497;28;45027;-79
2022/10/06 15:32:37;;;;;;;0.73;0.50;;;20.70;49.40;;;;;;4875664;28;45201;-79
2022/10/06 15:35:03;;;;;;;0.73;0.73;;;20.70;48.80;;;;;;4895251;29;45175;-79
2022/10/06 15:37:29;;;;;;;0.52;0.40;;;20.60;48.70;;;;;;4866481;28;47938;-79
2022/10/06 15:39:54;;;;;;;0.45;0.45;;;20.70;48.80;;;;;;4896739;28;45178;-79
2022/10/06 15:42:23;;;;;;;0.50;0.47;;;20.70;48.80;;;;;;4884814;28;45212;-79
2022/10/06 15:44:48;;;;;;;0.70;0.50;;;20.70;48.80;;;;;;4909096;28;45345;-80
2022/10/06 15:47:14;;;;;;;0.57;0.50;;;20.70;48.90;;;;;;4899846;28;45354;-79
2022/10/06 15:49:40;;;;;;;0.93;0.35;;;20.70;48.80;;;;;;4926778;28;45231;-79
2022/10/06 15:52:06;;;;;;;0.55;0.52;;;20.70;48.80;;;;;;4912783;28;45203;-80
2022/10/06 15:54:33;;;;;;;0.47;0.40;;;20.70;48.80;;;;;;4878205;28;45243;-79
2022/10/06 15:57:00;;;;;;;1.05;0.50;;;20.70;48.90;;;;;;4862594;28;47273;-80
2022/10/06 15:59:26;;;;;;;0.50;0.50;;;20.70;48.80;;;;;;4880241;28;45408;-80
2022/10/06 16:01:55;;;;;;;0.82;0.47;;;20.70;48.70;;;;;;4899309;28;45384;-79
2022/10/06 16:04:37;;;;;;;0.50;0.50;;;20.70;48.70;;;;;;4909452;28;45470;-80
2022/10/06 16:07:04;;;;;;;0.38;0.38;;;20.80;48.70;;;;;;4927860;28;45433;-80
2022/10/06 16:09:48;;;;;;;0.93;0.40;;;20.70;48.70;;;;;;4900040;28;45191;-80
2022/10/06 16:12:16;;;;;;;0.50;0.50;;;20.80;48.70;;;;;;4900484;28;45508;-79
2022/10/06 16:14:42;;;;;;;0.40;0.40;;;20.70;48.80;;;;;;4895635;28;44736;-80
2022/10/06 16:17:08;;;;;;;0.50;0.50;;;20.70;48.80;;;;;;4905055;28;47146;-80
2022/10/06 16:19:37;;;;;;;0.40;0.35;;;20.70;48.80;;;;;;4876942;28;45051;-80
2022/10/06 16:22:04;;;;;;;1.05;0.43;;;20.70;48.90;;;;;;4892963;28;45504;-80